Time;durP1;ratioP1;P1;durP2;ratioP2;P2;SDS_P1;SDS_P2;PMS_P1;PMS_P2;Temp;Humidity;BMP_temperature;BMP_pressure;BME280_temperature;BME280_humidity;BME280_pressure;Samples;Min_cycle;Max_cycle;Signal;HPM_P1;HPM_P2
2021/01/04 00:01:53;;;;;;;43.20;20.73;;;;;;;4.65;95.17;99948.66;5035640;28;20462;-75
2021/01/04 00:04:48;;;;;;;40.10;20.83;;;;;;;4.54;95.36;99936.75;5034310;28;20033;-75
2021/01/04 00:07:38;;;;;;;39.45;20.98;;;;;;;4.54;95.23;99944.69;5053016;28;20111;-76
2021/01/04 00:10:10;;;;;;;38.22;20.42;;;;;;;4.57;95.54;99939.25;5035224;28;20040;-75
2021/01/04 00:13:01;;;;;;;40.13;21.40;;;;;;;4.53;95.48;99926.22;5034806;28;20044;-75
2021/01/04 00:15:35;;;;;;;39.60;20.15;;;;;;;4.52;95.30;99909.50;5041104;28;20052;-75
2021/01/04 00:18:27;;;;;;;40.05;19.52;;;;;;;4.60;95.32;99930.34;5051890;28;20040;-75
2021/01/04 00:21:08;;;;;;;37.33;19.52;;;;;;;4.63;95.05;99932.84;5052927;28;20070;-76
2021/01/04 00:23:58;;;;;;;41.85;20.17;;;;;;;4.62;95.26;99932.91;5052526;28;20032;-76
2021/01/04 00:26:50;;;;;;;41.17;19.98;;;;;;;4.47;95.21;99931.78;5052533;28;20446;-74
2021/01/04 00:29:18;;;;;;;39.60;19.90;;;;;;;4.51;95.46;99938.63;5052513;28;20056;-76
2021/01/04 00:31:48;;;;;;;38.70;20.52;;;;;;;4.27;94.98;99891.19;5052914;28;20075;-75
2021/01/04 00:34:19;;;;;;;34.85;19.05;;;;;;;4.67;95.11;99950.31;5053048;28;20025;-78
2021/01/04 00:37:09;;;;;;;38.15;19.92;;;;;;;4.68;94.83;99954.66;5035698;28;20077;-76
2021/01/04 00:40:14;;;;;;;37.08;18.83;;;;;;;4.80;94.48;99950.66;5034522;28;20053;-76
2021/01/04 00:42:51;;;;;;;35.60;17.90;;;;;;;4.90;93.57;99941.41;5017662;28;20536;-76
2021/01/04 00:45:33;;;;;;;35.83;18.15;;;;;;;4.71;93.15;99898.19;5034696;28;20037;-75
2021/01/04 00:48:08;;;;;;;34.67;18.55;;;;;;;4.99;92.72;99935.75;5052652;28;20485;-75
2021/01/04 00:51:09;;;;;;;33.10;17.30;;;;;;;5.06;92.58;99942.50;5052593;28;20033;-75
2021/01/04 00:53:42;;;;;;;34.78;18.30;;;;;;;5.00;92.54;99940.09;4999330;28;20898;-75
2021/01/04 00:56:38;;;;;;;33.70;17.70;;;;;;;4.96;92.81;99935.88;5052771;28;20044;-75
2021/01/04 00:59:39;;;;;;;32.88;16.98;;;;;;;4.89;93.13;99945.00;5052656;28;20029;-74
2021/01/04 01:02:22;;;;;;;34.95;18.10;;;;;;;4.76;93.43;99949.06;4972089;28;20142;-75
2021/01/04 01:05:05;;;;;;;29.52;16.88;;;;;;;4.76;93.81;99955.22;5045653;28;20482;-75
2021/01/04 01:07:37;;;;;;;35.50;19.20;;;;;;;4.77;93.79;99961.38;5052506;28;20033;-75
2021/01/04 01:10:08;;;;;;;34.75;17.67;;;;;;;4.67;93.65;99950.31;5052597;28;20029;-78
2021/01/04 01:12:38;;;;;;;34.47;17.85;;;;;;;4.74;93.72;99958.84;5052340;28;20025;-78
2021/01/04 01:15:28;;;;;;;35.70;18.05;;;;;;;4.98;92.81;99970.19;5052228;28;20033;-77
2021/01/04 01:18:10;;;;;;;30.50;16.95;;;;;;;4.95;92.38;99950.03;5055214;28;20040;-77
2021/01/04 01:20:45;;;;;;;31.35;16.08;;;;;;;5.07;92.33;99970.66;5056070;28;20064;-78
2021/01/04 01:23:11;;;;;;;34.30;17.73;;;;;;;4.85;92.53;99938.13;5056216;28;20040;-78
2021/01/04 01:26:09;;;;;;;33.10;16.90;;;;;;;5.05;92.05;99959.28;5038105;28;20079;-78
2021/01/04 01:29:09;;;;;;;34.65;16.55;;;;;;;4.98;92.52;99968.41;5055763;28;20052;-78
2021/01/04 01:31:56;;;;;;;32.03;16.77;;;;;;;4.90;92.88;99970.50;5011436;28;20091;-78
2021/01/04 01:34:46;;;;;;;33.72;16.00;;;;;;;4.81;93.48;99979.66;5055807;28;20017;-78
2021/01/04 01:37:20;;;;;;;29.40;15.95;;;;;;;4.81;93.39;99974.38;5056346;28;20031;-76
2021/01/04 01:40:13;;;;;;;31.45;16.33;;;;;;;4.78;93.44;99968.38;5055869;28;20029;-76
2021/01/04 01:42:54;;;;;;;30.63;16.50;;;;;;;4.74;93.94;99969.44;5055999;28;20037;-74
2021/01/04 01:45:37;;;;;;;34.53;17.23;;;;;;;4.77;93.63;99969.28;5037634;28;20083;-76
2021/01/04 01:48:10;;;;;;;30.65;15.40;;;;;;;4.92;93.39;99981.84;5055984;28;20385;-75
2021/01/04 01:50:38;;;;;;;28.45;15.65;;;;;;;4.89;93.17;99980.22;5055906;28;20033;-75
2021/01/04 01:53:09;;;;;;;34.35;16.70;;;;;;;4.85;93.19;99970.69;5038133;28;20071;-75
2021/01/04 01:55:40;;;;;;;31.88;17.27;;;;;;;4.96;92.99;99986.09;5037703;28;20466;-76
2021/01/04 01:58:31;;;;;;;31.90;17.02;;;;;;;4.81;92.93;99936.53;5055667;28;20033;-75
2021/01/04 02:01:10;;;;;;;29.27;15.30;;;;;;;4.97;93.32;99969.31;5037633;28;20423;-75
2021/01/04 02:03:41;;;;;;;33.17;15.95;;;;;;;5.06;92.80;99973.38;5055353;28;20116;-75
2021/01/04 02:06:19;;;;;;;33.33;16.20;;;;;;;5.12;92.44;99973.97;5055412;28;20025;-75
2021/01/04 02:08:52;;;;;;;30.88;15.35;;;;;;;5.15;92.54;99973.84;5055486;28;20072;-75
2021/01/04 02:11:30;;;;;;;29.58;15.85;;;;;;;4.84;92.66;99923.19;5037422;28;20029;-75
2021/01/04 02:14:30;;;;;;;31.17;14.40;;;;;;;5.24;92.06;99961.16;5055267;28;20481;-74
2021/01/04 02:17:09;;;;;;;28.80;14.70;;;;;;;5.15;91.91;99955.34;5019805;28;20041;-74
2021/01/04 02:20:01;;;;;;;29.30;14.10;;;;;;;5.12;92.22;99968.69;5054917;28;20033;-77
2021/01/04 02:23:00;;;;;;;29.30;14.80;;;;;;;5.21;91.99;99970.09;5054839;28;20032;-75
2021/01/04 02:25:33;;;;;;;26.25;14.00;;;;;;;5.11;91.98;99940.50;5054823;28;20116;-76
2021/01/04 02:28:06;;;;;;;28.53;15.13;;;;;;;5.18;92.18;99946.41;5054440;28;20041;-76
2021/01/04 02:30:32;;;;;;;30.40;14.63;;;;;;;5.16;92.10;99948.25;5054998;28;20052;-74
2021/01/04 02:32:57;;;;;;;30.80;15.77;;;;;;;4.97;92.06;99913.81;5036588;28;20033;-75
2021/01/04 02:35:23;;;;;;;31.67;16.15;;;;;;;5.10;92.27;99933.50;5054709;28;20514;-76
2021/01/04 02:37:50;;;;;;;31.33;14.75;;;;;;;4.96;92.16;99906.81;5020445;28;20033;-75
2021/01/04 02:40:16;;;;;;;27.98;15.70;;;;;;;4.89;92.33;99897.41;5054716;28;20437;-74
2021/01/04 02:42:45;;;;;;;28.92;14.85;;;;;;;5.10;92.66;99933.50;5036696;28;20943;-75
2021/01/04 02:45:22;;;;;;;31.67;16.13;;;;;;;5.08;93.21;99931.88;5036595;28;20036;-75
2021/01/04 02:47:50;;;;;;;32.28;15.57;;;;;;;5.01;92.55;99917.19;5055216;28;20032;-75
2021/01/04 02:50:37;;;;;;;30.50;15.95;;;;;;;4.98;93.15;99930.53;5054814;28;20055;-76
2021/01/04 02:53:02;;;;;;;29.33;15.10;;;;;;;4.94;93.59;99937.75;5054365;28;20055;-74
2021/01/04 02:56:03;;;;;;;31.92;16.10;;;;;;;4.95;93.52;99947.38;5054554;28;20041;-75
2021/01/04 02:58:56;;;;;;;31.55;16.52;;;;;;;4.90;93.84;99938.78;5054435;28;20512;-76
2021/01/04 03:01:49;;;;;;;32.78;16.55;;;;;;;4.88;93.92;99951.22;5036621;28;20033;-76
2021/01/04 03:04:19;;;;;;;31.27;15.60;;;;;;;4.80;94.04;99945.38;5054798;28;20039;-76
2021/01/04 03:06:59;;;;;;;36.70;17.63;;;;;;;4.84;94.03;99957.56;5054078;28;20025;-76
2021/01/04 03:09:30;;;;;;;31.67;15.55;;;;;;;4.70;94.24;99930.81;5054213;28;20033;-75
2021/01/04 03:11:58;;;;;;;32.47;16.23;;;;;;;4.78;94.05;99944.59;5053238;28;20049;-76
2021/01/04 03:14:59;;;;;;;33.63;15.57;;;;;;;4.78;94.30;99947.22;5053970;28;20105;-77
2021/01/04 03:17:36;;;;;;;32.83;17.40;;;;;;;4.72;94.63;99952.75;5053793;28;20043;-77
2021/01/04 03:20:07;;;;;;;33.10;16.92;;;;;;;4.58;94.58;99946.25;5054008;28;20040;-74
2021/01/04 03:22:33;;;;;;;34.08;17.45;;;;;;;4.60;94.98;99947.06;5053888;28;20033;-74
2021/01/04 03:24:58;;;;;;;36.95;18.23;;;;;;;4.55;95.19;99949.03;5036480;28;20402;-75
2021/01/04 03:27:32;;;;;;;37.58;16.65;;;;;;;4.57;95.01;99928.69;5035916;28;20398;-75
2021/01/04 03:29:57;;;;;;;;;;;;;;;4.76;94.76;99938.50;5051157;28;20490;-75
2021/01/04 03:32:23;;;;;;;31.85;16.75;;;;;;;4.46;94.66;99883.38;5054693;28;19936;-74
2021/01/04 03:34:49;;;;;;;33.05;17.02;;;;;;;4.77;94.19;99919.09;5053394;28;20118;-74
2021/01/04 03:37:17;;;;;;;33.97;16.95;;;;;;;4.89;93.93;99939.72;5019942;28;20053;-74
2021/01/04 03:39:43;;;;;;;33.80;18.05;;;;;;;4.88;93.90;99945.91;5052633;28;20112;-75
2021/01/04 03:42:09;;;;;;;35.47;17.95;;;;;;;4.90;93.51;99933.50;5053663;28;20029;-75
2021/01/04 03:44:35;;;;;;;32.25;16.60;;;;;;;5.01;93.50;99948.91;5035473;28;20033;-75
2021/01/04 03:47:00;;;;;;;36.22;17.20;;;;;;;5.08;93.15;99953.88;5035590;28;20394;-74
2021/01/04 03:49:27;;;;;;;36.60;17.50;;;;;;;5.02;93.13;99956.78;5035748;28;20462;-79
2021/01/04 03:51:54;;;;;;;33.45;16.95;;;;;;;5.11;93.04;99952.88;5053595;28;20044;-75
2021/01/04 03:54:20;;;;;;;34.03;17.30;;;;;;;5.12;92.74;99952.84;5053419;28;20033;-74
2021/01/04 03:56:46;;;;;;;31.98;16.48;;;;;;;4.84;92.70;99907.34;5053036;28;20091;-74
2021/01/04 03:59:13;;;;;;;31.45;16.17;;;;;;;5.02;92.70;99934.75;5053653;28;20037;-74
2021/01/04 04:01:38;;;;;;;31.40;17.10;;;;;;;5.07;92.70;99941.56;5052971;28;20107;-76
2021/01/04 04:04:04;;;;;;;31.90;17.08;;;;;;;5.14;92.38;99940.41;5019548;28;20136;-75
2021/01/04 04:06:29;;;;;;;34.53;17.20;;;;;;;5.18;92.55;99939.31;5052990;28;20136;-75
2021/01/04 04:08:55;;;;;;;32.85;17.05;;;;;;;4.88;92.81;99907.13;5053231;28;20482;-73
2021/01/04 04:11:21;;;;;;;31.13;16.83;;;;;;;5.17;92.79;99945.53;5053036;28;20112;-75
2021/01/04 04:13:46;;;;;;;31.27;17.17;;;;;;;5.11;92.61;99944.94;5034981;28;20060;-75
2021/01/04 04:16:14;;;;;;;32.08;16.27;;;;;;;5.25;92.55;99939.94;5035310;28;20139;-73
2021/01/04 04:18:39;;;;;;;36.20;16.75;;;;;;;5.32;92.17;99932.59;5052607;28;20036;-73
2021/01/04 04:21:05;;;;;;;32.72;16.45;;;;;;;5.21;92.38;99934.81;5052987;28;20390;-74
2021/01/04 04:23:30;;;;;;;33.63;17.33;;;;;;;5.20;92.06;99933.13;5053137;28;20036;-75
2021/01/04 04:25:56;;;;;;;29.05;15.75;;;;;;;5.04;92.34;99895.91;5053024;28;20041;-74
2021/01/04 04:28:21;;;;;;;34.75;17.33;;;;;;;5.28;92.52;99947.72;5053080;28;20115;-75
2021/01/04 04:30:47;;;;;;;33.38;16.08;;;;;;;5.33;92.15;99943.09;5052362;28;20053;-75
2021/01/04 04:33:12;;;;;;;31.02;16.95;;;;;;;5.15;92.55;99920.97;5018323;28;20051;-75
2021/01/04 04:35:37;;;;;;;32.03;17.30;;;;;;;4.97;92.87;99900.59;5034900;28;20029;-75
2021/01/04 04:38:04;;;;;;;33.20;16.67;;;;;;;5.04;92.46;99902.06;5035250;28;20390;-74
2021/01/04 04:40:33;;;;;;;34.20;16.85;;;;;;;5.35;92.50;99950.97;5052605;28;20029;-78
2021/01/04 04:43:30;;;;;;;29.15;15.88;;;;;;;5.30;92.30;99940.56;5052751;28;20036;-75
2021/01/04 04:45:56;;;;;;;31.48;16.58;;;;;;;5.33;92.52;99934.31;5035247;28;20055;-74
2021/01/04 04:48:36;;;;;;;31.35;16.45;;;;;;;5.31;92.42;99936.19;5034916;28;20033;-74
2021/01/04 04:51:22;;;;;;;31.77;17.60;;;;;;;5.34;92.59;99941.31;5054441;28;20033;-74
2021/01/04 04:54:19;;;;;;;30.00;15.80;;;;;;;5.37;92.41;99936.75;5056652;28;20032;-73
2021/01/04 04:57:06;;;;;;;35.00;17.58;;;;;;;5.38;92.26;99922.59;5038616;28;20125;-73
2021/01/04 05:00:06;;;;;;;33.10;16.55;;;;;;;5.43;92.45;99935.63;5038702;28;20048;-76
2021/01/04 05:02:42;;;;;;;34.72;17.15;;;;;;;5.51;91.93;99928.22;5056815;28;20382;-79
2021/01/04 05:05:30;;;;;;;31.80;16.98;;;;;;;5.52;91.83;99939.66;5056947;28;20044;-75
2021/01/04 05:08:40;;;;;;;30.05;16.17;;;;;;;5.47;91.77;99932.78;5056499;28;20056;-75
2021/01/04 05:11:06;;;;;;;29.92;15.57;;;;;;;5.47;91.84;99934.56;5031377;28;20044;-75
2021/01/04 05:13:42;;;;;;;29.17;16.52;;;;;;;5.32;91.83;99935.25;5056454;28;20045;-76
2021/01/04 05:16:12;;;;;;;32.60;16.40;;;;;;;5.52;91.74;99940.53;5038721;28;20104;-73
2021/01/04 05:19:11;;;;;;;29.90;16.92;;;;;;;5.60;91.55;99942.84;5056131;28;20029;-72
2021/01/04 05:21:39;;;;;;;31.15;15.25;;;;;;;5.59;91.47;99944.59;5055956;28;20036;-72
2021/01/04 05:24:39;;;;;;;33.70;17.02;;;;;;;5.62;91.31;99935.69;5056502;28;20037;-74
2021/01/04 05:27:32;;;;;;;31.17;15.90;;;;;;;5.59;91.57;99926.06;5055951;28;20548;-73
2021/01/04 05:30:14;;;;;;;36.67;17.58;;;;;;;5.46;91.93;99924.91;5038164;28;20033;-74
2021/01/04 05:33:06;;;;;;;34.33;15.70;;;;;;;5.54;91.82;99916.63;5055791;28;20152;-74
2021/01/04 05:35:34;;;;;;;31.73;16.35;;;;;;;5.56;91.74;99915.63;5055896;28;20061;-75
2021/01/04 05:38:10;;;;;;;33.45;16.60;;;;;;;5.57;91.60;99917.34;5056459;28;20436;-74
2021/01/04 05:40:47;;;;;;;30.45;15.35;;;;;;;5.58;91.71;99921.69;5055587;28;20035;-76
2021/01/04 05:43:24;;;;;;;34.20;17.00;;;;;;;5.47;91.81;99910.75;5056301;28;20033;-77
2021/01/04 05:46:00;;;;;;;32.42;16.75;;;;;;;5.47;91.94;99916.03;5055802;28;20033;-76
2021/01/04 05:49:03;;;;;;;31.48;15.13;;;;;;;5.53;91.83;99926.34;5055881;28;20104;-74
2021/01/04 05:51:34;;;;;;;30.83;15.63;;;;;;;5.47;92.19;99927.47;5055552;28;20534;-75
2021/01/04 05:53:59;;;;;;;31.98;16.83;;;;;;;5.57;92.12;99935.88;5037576;28;20040;-73
2021/01/04 05:56:27;;;;;;;33.45;16.70;;;;;;;5.54;92.13;99927.22;5037867;28;20037;-73
2021/01/04 05:59:06;;;;;;;30.70;15.50;;;;;;;5.60;91.93;99940.19;5055007;28;20108;-74
2021/01/04 06:01:32;;;;;;;31.38;15.35;;;;;;;5.64;91.58;99937.31;5055264;28;20080;-74
2021/01/04 06:04:04;;;;;;;30.52;15.98;;;;;;;5.61;91.79;99931.31;5036460;28;20037;-74
2021/01/04 06:06:37;;;;;;;31.05;16.08;;;;;;;5.34;91.48;99888.44;5055407;28;20056;-74
2021/01/04 06:09:06;;;;;;;31.98;16.80;;;;;;;5.58;91.71;99937.56;5037391;28;20024;-74
2021/01/04 06:11:32;;;;;;;33.15;16.67;;;;;;;5.60;91.45;99942.84;5055422;28;20029;-74
2021/01/04 06:14:03;;;;;;;32.35;16.25;;;;;;;5.37;91.86;99912.09;5054895;28;20064;-74
2021/01/04 06:16:29;;;;;;;31.05;16.25;;;;;;;5.56;91.98;99938.59;5055203;28;20065;-71
2021/01/04 06:19:03;;;;;;;40.50;17.55;;;;;;;5.57;92.08;99951.75;5037304;28;20437;-70
2021/01/04 06:21:41;;;;;;;36.28;16.65;;;;;;;5.46;92.08;99930.19;5054769;28;20052;-71
2021/01/04 06:24:08;;;;;;;31.20;16.02;;;;;;;5.32;92.02;99895.56;5055077;28;20033;-71
2021/01/04 06:26:34;;;;;;;37.00;17.83;;;;;;;5.61;92.02;99940.09;5055154;28;20033;-71
2021/01/04 06:29:06;;;;;;;33.90;16.88;;;;;;;5.52;91.92;99926.44;5054989;28;20037;-71
2021/01/04 06:31:40;;;;;;;31.40;16.63;;;;;;;5.47;92.23;99929.25;5055256;28;20512;-71
2021/01/04 06:34:21;;;;;;;36.03;17.05;;;;;;;5.53;92.28;99938.72;5054737;28;20032;-74
2021/01/04 06:36:54;;;;;;;35.25;16.63;;;;;;;5.37;92.56;99920.88;5054883;28;20036;-74
2021/01/04 06:39:29;;;;;;;36.17;16.48;;;;;;;5.41;92.71;99929.56;5037493;28;20462;-73
2021/01/04 06:42:06;;;;;;;31.33;15.85;;;;;;;5.54;92.37;99946.59;5036826;28;20044;-73
2021/01/04 06:44:31;;;;;;;32.03;16.05;;;;;;;5.55;92.50;99960.69;5054832;28;20099;-73
2021/01/04 06:47:07;;;;;;;35.00;17.38;;;;;;;5.29;92.35;99920.34;5054815;28;20029;-71
2021/01/04 06:50:12;;;;;;;35.03;16.17;;;;;;;5.58;92.33;99973.75;5054702;28;20082;-73
2021/01/04 06:53:16;;;;;;;38.10;16.40;;;;;;;5.62;92.14;99954.19;5054689;28;20039;-74
2021/01/04 06:56:04;;;;;;;32.67;15.98;;;;;;;5.43;92.68;99951.50;4973357;28;20050;-75
2021/01/04 06:58:38;;;;;;;35.95;16.20;;;;;;;5.43;93.06;99972.66;5049622;28;20045;-73
2021/01/04 07:01:16;;;;;;;38.22;16.50;;;;;;;5.47;93.09;99979.53;5054241;28;20108;-73
2021/01/04 07:04:00;;;;;;;38.35;18.48;;;;;;;5.45;93.29;99976.97;5054616;28;20057;-74
2021/01/04 07:07:03;;;;;;;38.13;17.00;;;;;;;5.52;93.15;99985.50;5036895;28;20435;-74
2021/01/04 07:09:37;;;;;;;44.38;18.75;;;;;;;5.48;93.37;99989.19;5054236;28;20024;-70
2021/01/04 07:12:48;;;;;;;39.00;17.65;;;;;;;5.51;93.27;100001.44;5053873;28;20033;-71
2021/01/04 07:15:31;;;;;;;41.83;17.25;;;;;;;5.53;93.14;99995.16;5054503;28;20029;-70
2021/01/04 07:18:15;;;;;;;39.83;16.23;;;;;;;5.58;93.12;99998.44;5054277;28;20032;-69
2021/01/04 07:20:45;;;;;;;41.85;17.85;;;;;;;5.59;93.05;100000.16;5055763;28;20021;-70
2021/01/04 07:23:29;;;;;;;34.47;16.50;;;;;;;5.59;93.08;99994.84;5054234;28;20482;-69
2021/01/04 07:26:05;;;;;;;42.45;18.38;;;;;;;5.33;93.43;99960.78;5054019;28;20047;-70
2021/01/04 07:28:39;;;;;;;38.88;18.63;;;;;;;5.57;93.13;100002.00;5054263;28;20061;-71
2021/01/04 07:31:18;;;;;;;37.45;17.38;;;;;;;5.67;92.74;100003.31;5053679;28;20126;-73
2021/01/04 07:34:04;;;;;;;37.53;16.33;;;;;;;5.77;92.24;100002.91;5053883;28;20371;-73
2021/01/04 07:36:43;;;;;;;38.35;16.13;;;;;;;5.72;92.23;100014.59;5053736;28;20371;-73
2021/01/04 07:39:14;;;;;;;38.63;17.00;;;;;;;5.79;92.14;100014.28;5053717;28;20396;-72
2021/01/04 07:41:58;;;;;;;35.47;16.38;;;;;;;5.72;92.00;100009.28;5054059;28;20028;-72
2021/01/04 07:44:24;;;;;;;35.40;16.00;;;;;;;5.64;92.64;100010.56;5053748;28;20072;-72
2021/01/04 07:47:22;;;;;;;40.13;18.35;;;;;;;5.60;92.80;100017.78;5053538;28;20063;-70
2021/01/04 07:50:12;;;;;;;36.33;16.95;;;;;;;5.60;92.88;100017.78;5053445;28;20032;-70
2021/01/04 07:53:07;;;;;;;38.10;17.30;;;;;;;5.63;92.76;100014.97;5053743;28;20025;-71
2021/01/04 07:55:51;;;;;;;37.78;16.98;;;;;;;5.73;92.17;100011.00;5053536;28;20462;-71
2021/01/04 07:58:47;;;;;;;33.88;16.63;;;;;;;5.65;92.23;100014.91;5053542;28;20032;-71
2021/01/04 08:01:34;;;;;;;37.33;17.58;;;;;;;5.68;92.11;100012.97;5052774;28;20041;-72
2021/01/04 08:04:43;;;;;;;37.85;17.42;;;;;;;5.73;91.88;100020.72;5053016;28;20052;-71
2021/01/04 08:07:46;;;;;;;37.65;17.40;;;;;;;5.75;91.75;100017.09;5035290;28;20068;-71
2021/01/04 08:10:33;;;;;;;35.45;17.20;;;;;;;5.74;91.84;100015.38;5035073;28;20120;-72
2021/01/04 08:13:40;;;;;;;41.78;18.45;;;;;;;5.74;91.83;100017.16;5052985;28;20033;-71
2021/01/04 08:16:20;;;;;;;38.88;17.60;;;;;;;5.74;91.54;100004.78;5015080;28;20041;-72
2021/01/04 08:18:49;;;;;;;31.20;16.92;;;;;;;5.81;91.29;100012.47;5053480;28;20378;-71
2021/01/04 08:21:49;;;;;;;40.60;18.27;;;;;;;5.83;90.96;100014.09;5053206;28;20047;-71
2021/01/04 08:24:33;;;;;;;35.13;17.60;;;;;;;5.91;90.84;100021.75;5052962;28;20133;-71
2021/01/04 08:27:08;;;;;;;36.42;19.08;;;;;;;5.98;90.65;100031.09;5052758;28;20037;-72
2021/01/04 08:29:46;;;;;;;32.72;16.83;;;;;;;5.68;90.52;99978.56;5053021;28;20029;-72
2021/01/04 08:32:14;;;;;;;32.10;16.58;;;;;;;5.92;90.94;100024.31;5052225;28;20060;-70
2021/01/04 08:34:43;;;;;;;34.95;16.90;;;;;;;5.77;90.84;100001.13;5052858;28;20029;-71
2021/01/04 08:37:11;;;;;;;35.00;17.48;;;;;;;5.82;90.38;100006.25;5052555;28;20116;-71
2021/01/04 08:39:45;;;;;;;31.67;15.60;;;;;;;6.02;90.28;100022.13;5053055;28;20028;-71
2021/01/04 08:42:27;;;;;;;33.28;15.90;;;;;;;6.12;89.64;100026.06;5052605;28;20032;-71
2021/01/04 08:44:58;;;;;;;30.50;15.32;;;;;;;6.10;89.39;100019.13;5052784;28;20509;-71
2021/01/04 08:47:36;;;;;;;32.92;16.30;;;;;;;6.11;89.70;100024.34;5052776;28;20040;-71
2021/01/04 08:50:28;;;;;;;30.25;16.42;;;;;;;6.07;89.44;100021.91;5052729;28;20033;-71
2021/01/04 08:52:56;;;;;;;29.55;15.75;;;;;;;5.90;89.06;99985.59;5034208;28;20033;-71
2021/01/04 08:55:28;;;;;;;32.47;16.00;;;;;;;6.07;88.92;100004.22;5035030;28;20040;-71
2021/01/04 08:57:54;;;;;;;30.42;14.95;;;;;;;6.22;88.30;100018.56;5052535;28;20116;-72
2021/01/04 09:00:26;;;;;;;30.65;15.30;;;;;;;6.27;88.38;100021.84;5052682;28;20036;-71
2021/01/04 09:02:54;;;;;;;29.58;15.20;;;;;;;6.23;87.99;100007.88;5052660;28;20068;-71
2021/01/04 09:05:35;;;;;;;31.48;15.23;;;;;;;6.17;87.78;100002.88;5052837;28;20119;-71
2021/01/04 09:08:03;;;;;;;28.63;14.80;;;;;;;6.11;87.88;99994.38;5034824;28;20029;-73
2021/01/04 09:10:35;;;;;;;30.75;15.82;;;;;;;6.19;88.20;100008.97;5052570;28;20389;-71
2021/01/04 09:13:37;;;;;;;30.65;16.20;;;;;;;6.11;88.48;100011.09;5052466;28;20037;-71
2021/01/04 09:16:14;;;;;;;33.00;16.35;;;;;;;6.05;88.52;99995.50;5052406;28;20036;-71
2021/01/04 09:18:44;;;;;;;31.33;15.50;;;;;;;6.04;88.19;99983.19;5052438;28;20039;-71
2021/01/04 09:21:31;;;;;;;29.90;15.10;;;;;;;6.10;88.14;99985.56;5052639;28;20068;-71
2021/01/04 09:24:23;;;;;;;29.48;15.20;;;;;;;6.28;87.80;100005.91;5052408;28;20436;-70
2021/01/04 09:26:51;;;;;;;32.22;16.27;;;;;;;6.23;87.96;100010.53;5052167;28;20037;-71
2021/01/04 09:29:32;;;;;;;29.52;14.60;;;;;;;5.97;87.58;99968.50;5052278;28;20104;-70
2021/01/04 09:32:04;;;;;;;28.70;14.32;;;;;;;6.15;87.53;100010.03;5052218;28;20080;-71
2021/01/04 09:34:30;;;;;;;28.67;15.30;;;;;;;5.95;87.66;99976.50;5034733;28;20075;-71
2021/01/04 09:37:24;;;;;;;30.60;15.85;;;;;;;6.24;87.77;100003.44;5034354;28;20474;-72
2021/01/04 09:39:59;;;;;;;30.50;14.50;;;;;;;6.25;87.48;100006.03;5052717;28;20044;-71
2021/01/04 09:42:27;;;;;;;30.77;15.00;;;;;;;6.13;87.53;99973.97;5056298;28;20375;-71
2021/01/04 09:44:53;;;;;;;26.30;14.70;;;;;;;6.34;87.12;99990.63;5056090;28;20103;-71
2021/01/04 09:47:32;;;;;;;30.30;16.25;;;;;;;6.44;86.72;100005.16;5037779;28;20036;-71
2021/01/04 09:50:06;;;;;;;28.75;14.43;;;;;;;6.48;86.56;100006.75;5055513;28;20033;-72
2021/01/04 09:53:18;;;;;;;26.95;14.95;;;;;;;6.45;86.06;99998.94;5055807;28;20063;-71
2021/01/04 09:55:45;;;;;;;27.27;14.45;;;;;;;6.50;86.42;99997.78;4955540;28;20160;-70
2021/01/04 09:58:11;;;;;;;28.08;14.63;;;;;;;6.54;86.07;99996.72;4955365;28;20035;-71
2021/01/04 10:00:39;;;;;;;30.90;15.55;;;;;;;6.27;85.87;99951.22;5008854;28;20045;-71
2021/01/04 10:03:15;;;;;;;27.23;14.23;;;;;;;6.60;85.83;99985.81;5021056;28;20076;-71
2021/01/04 10:05:48;;;;;;;30.15;15.07;;;;;;;6.51;85.14;99969.50;5055962;28;20035;-70
2021/01/04 10:08:18;;;;;;;26.38;15.20;;;;;;;6.58;85.33;99965.63;5037670;28;20029;-71
2021/01/04 10:11:05;;;;;;;27.27;15.20;;;;;;;6.71;84.95;99976.50;5055780;28;20047;-71
2021/01/04 10:13:34;;;;;;;31.55;14.57;;;;;;;6.68;85.20;99968.69;5037834;28;20434;-70
2021/01/04 10:16:04;;;;;;;28.52;14.82;;;;;;;6.63;85.45;99971.56;5055277;28;20028;-72
2021/01/04 10:18:46;;;;;;;27.58;14.75;;;;;;;6.75;84.49;99967.44;5055435;28;20031;-71
2021/01/04 10:21:17;;;;;;;26.13;14.55;;;;;;;6.58;84.26;99933.84;5054964;28;20391;-71
2021/01/04 10:23:53;;;;;;;26.85;15.25;;;;;;;6.65;84.36;99937.03;5055510;28;20033;-71
2021/01/04 10:26:18;;;;;;;33.50;15.07;;;;;;;6.71;84.71;99964.09;5054891;28;20033;-71
2021/01/04 10:28:44;;;;;;;23.52;13.90;;;;;;;6.81;84.30;99962.72;5021193;28;20037;-71
2021/01/04 10:31:21;;;;;;;27.55;14.48;;;;;;;6.82;84.13;99958.28;5054625;28;20490;-71
2021/01/04 10:33:46;;;;;;;28.80;15.27;;;;;;;6.55;84.06;99923.38;5055012;28;20033;-71
2021/01/04 10:36:14;;;;;;;25.55;14.02;;;;;;;6.71;84.31;99956.16;5054867;28;20039;-71
2021/01/04 10:38:48;;;;;;;28.48;15.65;;;;;;;6.66;84.42;99941.38;5037432;28;20036;-71
2021/01/04 10:41:17;;;;;;;27.17;14.07;;;;;;;6.48;85.09;99924.63;5054738;28;20242;-71
2021/01/04 10:43:44;;;;;;;28.98;15.02;;;;;;;6.17;85.43;99885.47;5054830;28;20109;-71
2021/01/04 10:46:16;;;;;;;30.35;14.98;;;;;;;6.54;85.89;99932.25;5036784;28;20041;-71
2021/01/04 10:48:57;;;;;;;26.77;15.38;;;;;;;6.45;85.82;99938.00;5054346;28;20025;-70
2021/01/04 10:51:23;;;;;;;27.85;15.25;;;;;;;6.51;85.94;99921.81;5054491;28;20090;-71
2021/01/04 10:53:49;;;;;;;29.30;15.70;;;;;;;6.38;85.93;99904.81;5020257;28;20471;-70
2021/01/04 10:56:14;;;;;;;28.30;14.93;;;;;;;6.49;86.07;99923.69;5036668;28;20040;-70
2021/01/04 10:59:09;;;;;;;27.33;15.25;;;;;;;6.37;85.85;99908.34;5054540;28;20390;-72
2021/01/04 11:01:40;;;;;;;29.77;15.05;;;;;;;6.46;85.80;99902.63;5043002;28;20473;-70
2021/01/04 11:04:10;;;;;;;27.77;15.18;;;;;;;6.36;85.09;99874.84;5036558;28;20378;-72
2021/01/04 11:06:40;;;;;;;31.40;15.40;;;;;;;6.61;84.82;99896.56;5054727;28;20025;-71
2021/01/04 11:09:12;;;;;;;27.75;14.70;;;;;;;6.71;84.12;99899.63;5054304;28;20509;-71
2021/01/04 11:11:41;;;;;;;24.50;13.52;;;;;;;6.76;84.01;99887.88;5054635;28;20033;-70
2021/01/04 11:14:17;;;;;;;26.85;14.52;;;;;;;6.82;83.49;99895.50;5036035;28;20431;-70
2021/01/04 11:16:49;;;;;;;25.13;14.25;;;;;;;6.89;83.38;99886.31;5054378;28;20040;-71
2021/01/04 11:19:35;;;;;;;27.75;14.50;;;;;;;6.88;83.11;99886.38;5053966;28;20051;-71
2021/01/04 11:22:20;;;;;;;26.85;13.93;;;;;;;6.98;82.49;99889.44;5054399;28;20025;-71
2021/01/04 11:24:46;;;;;;;25.83;13.93;;;;;;;6.95;82.59;99894.88;5054132;28;20033;-71
2021/01/04 11:27:12;;;;;;;29.08;14.55;;;;;;;6.81;82.93;99888.47;5035813;28;20036;-71
2021/01/04 11:29:38;;;;;;;22.45;12.32;;;;;;;6.94;82.05;99879.91;5053889;28;20401;-71
2021/01/04 11:32:05;;;;;;;25.83;14.52;;;;;;;6.80;81.88;99839.06;5053934;28;20048;-71
2021/01/04 11:34:30;;;;;;;25.40;13.80;;;;;;;6.98;82.15;99868.22;5036255;28;20037;-71
2021/01/04 11:36:55;;;;;;;29.52;14.43;;;;;;;7.04;81.71;99873.19;5019776;28;20033;-71
2021/01/04 11:39:22;;;;;;;28.33;14.68;;;;;;;6.93;82.23;99860.47;5053694;28;20475;-71
2021/01/04 11:41:48;;;;;;;24.88;13.80;;;;;;;6.89;82.03;99851.84;5053883;28;20041;-71
2021/01/04 11:44:13;;;;;;;24.38;14.65;;;;;;;6.93;82.13;99843.72;5035613;28;20482;-72
2021/01/04 11:46:39;;;;;;;26.33;14.40;;;;;;;7.09;82.36;99852.59;5019371;28;20131;-72
2021/01/04 11:49:04;;;;;;;26.77;14.00;;;;;;;7.12;81.91;99844.47;5035733;28;20488;-72
2021/01/04 11:51:30;;;;;;;25.45;14.25;;;;;;;7.02;81.49;99837.94;5036081;28;20029;-71
2021/01/04 11:53:56;;;;;;;24.23;13.68;;;;;;;6.82;81.34;99794.75;5035797;28;20442;-71
2021/01/04 11:56:24;;;;;;;29.52;14.75;;;;;;;7.02;81.22;99817.56;5053083;28;20466;-71
2021/01/04 11:58:49;;;;;;;26.83;14.10;;;;;;;7.18;81.08;99828.25;5053653;28;20039;-71
2021/01/04 12:01:16;;;;;;;26.83;14.27;;;;;;;7.09;80.63;99796.91;5034837;28;20033;-71
2021/01/04 12:03:41;;;;;;;27.75;15.13;;;;;;;7.34;80.71;99834.47;5053394;28;20131;-71
2021/01/04 12:06:09;;;;;;;26.63;14.73;;;;;;;7.27;81.02;99833.06;5053224;28;20057;-72
2021/01/04 12:08:35;;;;;;;30.30;15.85;;;;;;;7.27;81.22;99834.88;5035298;28;20055;-71